createdAt,value
2023-01-07T12:54:52.862Z,100913.88
2023-01-07T13:01:30.003Z,100920.75
2023-01-07T13:04:09.124Z,100912.38
2023-01-07T13:06:54.279Z,100916.44
2023-01-07T13:10:07.577Z,100916.50
2023-01-07T13:12:43.454Z,100911.97
2023-01-07T13:15:21.861Z,100912.81
2023-01-07T13:17:54.350Z,100918.34
2023-01-07T13:20:56.037Z,100912.53
2023-01-07T13:23:53.491Z,100914.72
2023-01-07T13:26:33.081Z,100913.94
2023-01-07T13:29:19.455Z,100911.66
2023-01-07T13:32:07.984Z,100913.16
2023-01-07T13:35:13.531Z,100913.94
2023-01-07T13:38:01.889Z,100909.06
2023-01-07T13:40:47.946Z,100901.63
2023-01-07T13:43:27.740Z,100908.38
2023-01-07T13:46:10.507Z,100910.50
2023-01-07T13:48:39.433Z,100916.06
2023-01-07T13:51:09.036Z,100913.06
2023-01-07T13:53:44.718Z,100915.69
2023-01-07T13:56:17.986Z,100911.13
2023-01-07T13:58:46.311Z,100913.38
2023-01-07T14:01:19.555Z,100913.38
2023-01-07T14:04:07.184Z,100913.34
2023-01-07T14:06:40.521Z,100918.53
2023-01-07T14:09:07.731Z,100913.28
2023-01-07T14:11:39.215Z,100909.81
2023-01-07T14:14:38.541Z,100909.03
2023-01-07T14:17:43.338Z,100910.81
2023-01-07T14:20:51.809Z,100918.94
2023-01-07T14:23:33.696Z,100912.78
2023-01-07T14:26:19.604Z,100913.03
2023-01-07T14:28:49.843Z,100913.94
2023-01-07T14:31:31.100Z,100904.19
2023-01-07T14:34:07.476Z,100909.63
2023-01-07T14:37:18.102Z,100902.53
2023-01-07T14:39:46.831Z,100910.69
2023-01-07T14:42:20.117Z,100909.97
2023-01-07T14:44:49.878Z,100908.25
2023-01-07T14:47:45.222Z,100904.13
2023-01-07T14:50:33.128Z,100900.72
2023-01-07T14:53:33.074Z,100905.34
2023-01-07T14:56:13.691Z,100909.00
2023-01-07T14:58:53.158Z,100906.44
2023-01-07T15:01:39.015Z,100913.66
2023-01-07T15:04:48.566Z,100909.38
2023-01-07T15:07:21.186Z,100917.47
2023-01-07T15:10:37.981Z,100914.06
2023-01-07T15:13:26.316Z,100915.06
2023-01-07T15:16:03.905Z,100917.84
2023-01-07T15:18:53.514Z,100910.91
2023-01-07T15:21:37.725Z,100915.31
2023-01-07T15:24:33.534Z,100916.25
2023-01-07T15:27:08.939Z,100924.34
2023-01-07T15:29:45.180Z,100915.59
2023-01-07T15:32:15.583Z,100915.72
2023-01-07T15:34:44.318Z,100921.06
2023-01-07T15:37:14.761Z,100929.13
2023-01-07T15:39:49.838Z,100929.22
2023-01-07T15:42:21.449Z,100934.56
2023-01-07T15:44:52.410Z,100935.50
2023-01-07T15:47:41.791Z,100938.16
2023-01-07T15:50:22.787Z,100935.50
2023-01-07T15:53:00.145Z,100948.81
2023-01-07T15:55:38.421Z,100940.81
2023-01-07T15:58:27.688Z,100948.81
2023-01-07T16:00:58.842Z,100954.13
2023-01-07T16:03:28.007Z,100942.63
2023-01-07T16:05:56.362Z,100953.28
2023-01-07T16:08:32.070Z,100954.16
2023-01-07T16:11:09.222Z,100956.81
2023-01-07T16:13:37.029Z,100955.03
2023-01-07T16:16:06.738Z,100946.16
2023-01-07T16:18:34.315Z,100955.84
2023-01-07T16:21:06.878Z,100964.66
2023-01-07T16:23:37.411Z,100962.00
2023-01-07T16:26:10.598Z,100963.75
2023-01-07T16:29:06.476Z,100953.06
2023-01-07T16:31:35.687Z,100958.34
2023-01-07T16:34:36.989Z,100959.25
2023-01-07T16:37:07.236Z,100961.81
2023-01-07T16:39:38.560Z,100962.66
2023-01-07T16:42:23.468Z,100963.47
2023-01-07T16:44:53.915Z,100963.44
2023-01-07T16:47:30.385Z,100966.09
2023-01-07T16:50:23.649Z,100968.75
2023-01-07T16:52:53.460Z,100968.72
2023-01-07T16:55:47.022Z,100974.00
2023-01-07T16:58:49.289Z,100981.09
2023-01-07T17:01:30.737Z,100977.53
2023-01-07T17:04:01.934Z,100977.53
2023-01-07T17:06:37.263Z,100984.63
2023-01-07T17:09:04.926Z,100980.25
2023-01-07T17:11:37.214Z,100982.00
2023-01-07T17:14:05.077Z,100984.63
2023-01-07T17:16:33.879Z,100988.97
2023-01-07T17:19:25.115Z,100987.13
2023-01-07T17:21:53.511Z,100991.44
2023-01-07T17:24:29.875Z,100987.91
2023-01-07T17:27:01.044Z,100997.56
2023-01-07T17:29:36.183Z,100997.56
2023-01-07T17:32:04.434Z,100999.34
2023-01-07T17:34:31.706Z,100991.25
2023-01-07T17:36:59.093Z,100992.81
2023-01-07T17:39:26.439Z,100991.94
2023-01-07T17:42:12.229Z,101003.59
2023-01-07T17:44:39.557Z,101000.09
2023-01-07T17:47:09.990Z,101008.22
2023-01-07T17:49:37.458Z,101004.63
2023-01-07T17:52:05.155Z,100997.44
2023-01-07T17:54:32.595Z,101007.00
2023-01-07T17:56:59.969Z,101001.69
2023-01-07T17:59:31.406Z,101009.03
2023-01-07T18:02:00.862Z,101005.53
2023-01-07T18:04:28.250Z,101008.16
2023-01-07T18:06:55.571Z,101008.81
2023-01-07T18:09:22.963Z,101015.66
2023-01-07T18:12:08.620Z,101016.53
2023-01-07T18:14:36.171Z,101010.22
2023-01-07T18:17:03.507Z,101011.81
2023-01-07T18:19:30.970Z,101006.34
2023-01-07T18:21:59.953Z,101018.66
2023-01-07T18:24:27.257Z,101011.09
2023-01-07T18:26:56.538Z,101008.41
2023-01-07T18:29:24.256Z,101015.44
2023-01-07T18:31:51.828Z,101014.44
2023-01-07T18:34:19.397Z,101015.13
2023-01-07T18:36:46.995Z,101018.50
2023-01-07T18:39:19.359Z,101021.25
2023-01-07T18:41:50.361Z,101028.25
2023-01-07T18:44:19.504Z,101024.63
2023-01-07T18:46:46.985Z,101023.34
2023-01-07T18:49:14.839Z,101017.91
2023-01-07T18:51:42.149Z,101027.41
2023-01-07T18:54:09.513Z,101023.84
2023-01-07T18:56:36.930Z,101019.41
2023-01-07T18:59:05.172Z,101020.91
2023-01-07T19:01:32.597Z,101025.38
2023-01-07T19:04:00.138Z,101025.22
2023-01-07T19:06:28.628Z,101025.06
2023-01-07T19:08:57.297Z,101025.88
2023-01-07T19:11:24.747Z,101024.81
2023-01-07T19:13:52.028Z,101022.09
2023-01-07T19:16:19.464Z,101022.84
2023-01-07T19:18:46.898Z,101024.53
2023-01-07T19:21:14.704Z,101023.53
2023-01-07T19:23:42.206Z,101023.59
2023-01-07T19:26:11.269Z,101029.59
2023-01-07T19:28:38.852Z,101031.28
2023-01-07T19:31:11.003Z,101027.72
2023-01-07T19:33:39.948Z,101031.13
2023-01-07T19:36:10.596Z,101029.28
2023-01-07T19:38:42.715Z,101024.94
2023-01-07T19:41:12.463Z,101027.56
2023-01-07T19:43:40.365Z,101024.97
2023-01-07T19:46:08.862Z,101030.50
2023-01-07T19:48:36.430Z,101023.38
2023-01-07T19:51:05.609Z,101032.13
2023-01-07T19:53:34.767Z,101033.81
2023-01-07T19:56:04.250Z,101033.69
2023-01-07T19:58:32.829Z,101031.00
2023-01-07T20:01:12.005Z,101027.31
2023-01-07T20:03:39.553Z,101035.25
2023-01-07T20:06:10.577Z,101044.72
2023-01-07T20:08:38.833Z,101040.31
2023-01-07T20:11:06.980Z,101042.00
2023-01-07T20:13:36.114Z,101050.50
2023-01-07T20:16:08.962Z,101043.50
2023-01-07T20:18:41.628Z,101044.59
2023-01-07T20:21:10.162Z,101045.31
2023-01-07T20:23:39.196Z,101041.75
2023-01-07T20:26:10.407Z,101046.88
2023-01-07T20:28:37.992Z,101042.47
2023-01-07T20:31:11.259Z,101038.91
2023-01-07T20:33:38.704Z,101040.13
2023-01-07T20:36:11.721Z,101044.53
2023-01-07T20:38:39.338Z,101049.00
2023-01-07T20:41:08.265Z,101048.97
2023-01-07T20:43:37.266Z,101043.91
2023-01-07T20:46:06.677Z,101049.69
2023-01-07T20:48:34.834Z,101042.66
2023-01-07T20:51:09.822Z,101049.84
2023-01-07T20:53:37.596Z,101047.13
2023-01-07T20:56:06.300Z,101048.78
2023-01-07T20:58:35.211Z,101045.50
2023-01-07T21:01:07.833Z,101043.13
2023-01-07T21:03:36.350Z,101052.34
2023-01-07T21:06:03.792Z,101047.88
2023-01-07T21:08:31.351Z,101048.94
2023-01-07T21:10:58.742Z,101048.31
2023-01-07T21:13:26.613Z,101053.47
2023-01-07T21:15:53.992Z,101050.75
2023-01-07T21:18:21.475Z,101045.63
2023-01-07T21:20:48.824Z,101046.06
2023-01-07T21:23:16.317Z,101049.50
2023-01-07T21:25:48.277Z,101058.19
2023-01-07T21:28:16.349Z,101057.34
2023-01-07T21:30:44.028Z,101049.38
2023-01-07T21:33:11.608Z,101060.63
2023-01-07T21:35:42.814Z,101051.09
2023-01-07T21:38:10.511Z,101060.69
2023-01-07T21:40:39.752Z,101047.44
2023-01-07T21:43:07.185Z,101059.78
2023-01-07T21:45:34.550Z,101063.13
2023-01-07T21:48:01.871Z,101055.09
2023-01-07T21:50:29.309Z,101053.22
2023-01-07T21:52:56.763Z,101053.34
2023-01-07T21:55:24.176Z,101042.69
2023-01-07T21:57:51.615Z,101048.81
2023-01-07T22:00:19.849Z,101048.69
2023-01-07T22:02:47.532Z,101050.25
2023-01-07T22:05:14.831Z,101046.72
2023-01-07T22:07:42.501Z,101050.06
2023-01-07T22:10:10.332Z,101049.16
2023-01-07T22:12:37.679Z,101055.09
2023-01-07T22:15:05.408Z,101058.72
2023-01-07T22:17:32.806Z,101052.41
2023-01-07T22:20:00.364Z,101052.34
2023-01-07T22:22:27.718Z,101061.84
2023-01-07T22:24:55.097Z,101066.00
2023-01-07T22:27:22.522Z,101059.13
2023-01-07T22:29:49.887Z,101047.75
2023-01-07T22:32:17.248Z,101043.44
2023-01-07T22:34:44.664Z,101050.50
2023-01-07T22:37:17.157Z,101046.97
2023-01-07T22:39:47.268Z,101050.44
2023-01-07T22:42:19.548Z,101057.31
2023-01-07T22:44:58.056Z,101045.03
2023-01-07T22:47:30.203Z,101044.94
2023-01-07T22:49:59.333Z,101049.28
2023-01-07T22:52:26.912Z,101045.66
2023-01-07T22:54:54.420Z,101043.69
2023-01-07T22:57:22.007Z,101049.00
2023-01-07T22:59:49.226Z,101041.03
2023-01-07T23:02:16.661Z,101041.78
2023-01-07T23:04:44.052Z,101049.88
2023-01-07T23:07:11.397Z,101042.78
2023-01-07T23:09:41.204Z,101044.72
2023-01-07T23:12:11.288Z,101044.00
2023-01-07T23:14:38.810Z,101044.72
2023-01-07T23:17:06.147Z,101033.50
2023-01-07T23:19:33.532Z,101038.66
2023-01-07T23:22:00.925Z,101032.59
2023-01-07T23:24:28.291Z,101038.41
2023-01-07T23:26:57.162Z,101028.84
2023-01-07T23:29:24.631Z,101040.09
2023-01-07T23:31:52.049Z,101038.41
2023-01-07T23:34:19.826Z,101039.25
2023-01-07T23:36:47.151Z,101030.03
2023-01-07T23:39:14.629Z,101026.00
2023-01-07T23:41:41.854Z,101038.47
2023-01-07T23:44:09.077Z,101042.97
2023-01-07T23:46:36.419Z,101032.41
2023-01-07T23:49:03.777Z,101031.66
2023-01-07T23:51:31.189Z,101022.41
2023-01-07T23:53:58.510Z,101026.56
2023-01-07T23:56:25.832Z,101025.72
2023-01-07T23:58:53.445Z,101021.25
